Home > Products > Valid Products > TAF

000
FTUS44 KAMA 200500 CCB
TAFDHT
TAF COR
KDHT 200531Z 2006/2106 21009KT 3SM BR SCT013
      TEMPO 2006/2009 1SM BR OVC001
     FM201000 22006KT 3SM BR OVC006
     FM201400 25006KT P6SM SCT015 SCT200
     FM210000 VRB05KT P6SM BKN200=



000
FTUS44 KAMA 200500 CCA
TAFDHT
TAF COR
KDHT 200529Z 2006/2106 21009KT 3SM BR SCT013
     FM201000 22006KT 3SM BR OVC006
     FM201400 25006KT P6SM SCT015 SCT200
     FM210000 VRB05KT P6SM BKN200=



000
FTUS44 KAMA 200500 CCA
TAFAMA
TAF COR
KAMA 200527Z 2006/2106 19006KT P6SM OVC012
     FM200800 19007KT P6SM OVC009
     FM201000 19009KT 1SM BR OVC004
     FM201600 22011KT P6SM SCT015 SCT200
     FM210400 15006KT P6SM OVC010=



000
FTUS44 KAMA 200500
TAFDHT
TAF
KDHT 200520Z 2006/2106 21009KT 3SM SCT013
     FM201000 22006KT 3SM BR OVC006
     FM201400 25006KT P6SM SCT015 SCT200
     FM210000 VRB05KT P6SM BKN200=



000
FTUS44 KAMA 200500
TAFAMA
TAF
KAMA 200520Z 2006/2106 19006KT P6SM OVC012
     FM200800 19007KT P6SM OVC009
     FM201000 19009KT 1SM BR OVC004
     FM201600 22011KT P6SM SCT015 SCT200
     FM210400 150006KT P6SM OVC010=



000
FTUS44 KAMA 200500
TAFGUY
TAF
KGUY 200520Z 2006/2106 20006KT P6SM SCT012
     FM200800 21006KT 3SM BR BKN006
     FM201600 20009KT P6SM SCT015 SCT200
     FM210000 20005KT P6SM BKN200=



000
FTUS44 KAMA 200200 AAA
TAFAMA
TAF AMD
KAMA 200249Z 2003/2024 19006KT P6SM OVC012
     FM200700 19007KT P6SM OVC009
     FM201000 19009KT 1SM BR OVC004
     FM201600 22011KT P6SM SCT015 SCT300=



000
FTUS44 KAMA 192300
TAFDHT
TAF
KDHT 192328Z 2000/2024 21009KT P6SM SCT013
     FM200400 22006KT 3SM BR OVC006
     FM201400 25006KT P6SM SCT015 SCT300=



000
FTUS44 KAMA 192300
TAFAMA
TAF
KAMA 192328Z 2000/2024 24006KT P6SM OVC012
     FM200200 19007KT P6SM OVC009
     FM200700 19009KT 1SM BR OVC004
     FM201600 22011KT P6SM SCT015 SCT300=



000
FTUS44 KAMA 192300
TAFGUY
TAF
KGUY 192328Z 2000/2024 20006KT P6SM SCT012
     FM200800 21006KT 3SM BR BKN006
     FM201600 20009KT P6SM SCT015 SCT300=



000
FTUS44 KAMA 192000 AAA
TAFAMA
TAF AMD
KAMA 192037Z 1921/2018 17006KT P6SM OVC012
     FM200000 17007KT P6SM OVC007
     FM200700 19009KT 1SM BR OVC004
     FM201600 22011KT P6SM SCT015 SCT300=



000
FTUS44 KAMA 191700
TAFDHT
TAF
KDHT 191739Z 1918/2018 21006KT 6SM BR BKN006
     FM192000 19006KT P6SM SCT025
     FM200400 22006KT 3SM BR OVC006
     FM201200 25006KT P6SM SCT015 SCT300=



000
FTUS44 KAMA 191700
TAFAMA
TAF
KAMA 191739Z 1918/2018 17007KT 1SM BR OVC004
     FM192100 17006KT 4SM BR OVC010
     FM200000 17007KT P6SM OVC007
     FM200700 19009KT 1SM BR OVC004
     FM201600 22011KT P6SM SCT015 SCT300=



000
FTUS44 KAMA 191700
TAFGUY
TAF
KGUY 191739Z 1918/2018 22006KT P6SM OVC009
     FM192000 21005KT P6SM BKN015
     FM200000 21006KT P6SM SCT012
     FM200800 21006KT 3SM BR BKN006
     FM201600 22008KT P6SM SCT015 SCT300=



000
FTUS44 KAMA 191600 AAC
TAFDHT
TAF AMD
KDHT 191613Z 1916/2012 VRB05KT 2SM BR OVC003
      TEMPO 1916/1918 1SM BR
     FM191800 25005KT P6SM SCT040
     FM200900 21004KT 6SM BR SCT010=



000
FTUS44 KAMA 191600 AAC
TAFAMA
TAF AMD
KAMA 191606Z 1916/2012 VRB05KT 1/2SM FG OVC002
      TEMPO 1916/1918 1/4SM FG
     FM191800 17005KT P6SM BKN025
     FM200600 18005KT 3SM BR OVC010=



000
FTUS44 KAMA 191600 AAC
TAFAMA
TAF AMD
KAMA 191606Z 1916/2012 VRB05KT 1/2SM FG OVC002
      TEMPO 1916/1918 1/4SM FG
     FM191800 17005KT P6SM BKN025
     FM200600 18005KT 3SM BR OVC010=



000
FTUS44 KAMA 191500 AAB
TAFAMA
TAF AMD
KAMA 191514Z 1915/2012 VRB05KT 3SM BR OVC003
      TEMPO 1915/1917 2SM BR
     FM191800 17005KT P6SM BKN025
     FM200600 18005KT 3SM BR OVC010=



000
FTUS44 KAMA 191400 AAB
TAFDHT
TAF AMD
KDHT 191416Z 1914/2012 VRB05KT 1SM BR OVC002
      TEMPO 1914/1916 1/2SM FZFG
     FM191600 30004KT 4SM BR SCT010
     FM191800 25005KT P6SM SCT040
     FM200900 21004KT 6SM BR SCT010=



000
FTUS44 KAMA 191200 AAA
TAFAMA
TAF AMD
KAMA 191234Z 1913/2012 16006KT 4SM BR OVC003
      TEMPO 1913/1914 OVC002
     FM191500 19005KT 6SM BR OVC012
     FM191800 17005KT P6SM BKN025
     FM200600 18005KT 3SM BR OVC010=



000
FTUS44 KAMA 191200 AAA
TAFDHT
TAF AMD
KDHT 191232Z 1913/2012 VRB05KT 3SM BR OVC006
      TEMPO 1913/1914 1SM BR OVC003
     FM191600 30004KT 4SM BR SCT010
     FM191800 25005KT P6SM SCT040
     FM200900 21004KT 6SM BR SCT010=



000
FTUS44 KAMA 191100
TAFDHT
TAF
KDHT 191120Z 1912/2012 VRB05KT 3SM BR OVC006
      TEMPO 1912/1914 OVC004
     FM191600 30004KT 4SM BR SCT010
     FM191800 25005KT P6SM SCT040
     FM200900 21004KT 6SM BR SCT010=



000
FTUS44 KAMA 191100
TAFAMA
TAF
KAMA 191120Z 1912/2012 16006KT 4SM BR OVC003
     FM191500 19005KT 6SM BR OVC012
     FM191800 17005KT P6SM BKN025
     FM200600 18005KT 3SM BR OVC010=



000
FTUS44 KAMA 191100
TAFGUY
TAF
KGUY 191120Z 1912/2012 VRB04KT 6SM BR OVC011
     FM191600 23005KT P6SM OVC010
     FM200000 18005KT P6SM SCT010=



000
FTUS44 KAMA 190900 AAD
TAFDHT
TAF AMD
KDHT 190918Z 1909/2006 VRB05KT 4SM BR OVC006
     FM191800 21004KT P6SM OVC010
     FM200000 18005KT P6SM SCT010=



000
FTUS44 KAMA 190900 AAB
TAFGUY
TAF AMD
KGUY 190918Z 1909/2006 19004KT 4SM BR OVC010
     FM191600 23005KT P6SM OVC010
     FM200000 18005KT P6SM SCT010=



000
FTUS44 KAMA 190800 AAA
TAFGUY
TAF AMD
KGUY 190858Z 1909/2006 19004KT 4SM BR OVC008
     FM191600 23005KT P6SM OVC010
     FM200000 18005KT P6SM SCT010=



000
FTUS44 KAMA 190800 AAC
TAFDHT
TAF AMD
KDHT 190818Z 1908/2006 VRB05KT 4SM BR OVC005
      TEMPO 1908/1910 OVC003
     FM191800 21004KT P6SM OVC010
     FM200000 18005KT P6SM SCT010=



000
FTUS44 KAMA 190800 AAC
TAFDHT
TAF AMD
KDHT 190818Z 1908/2006 VRB05KT 4SM BR OVC005
      TEMPO 1908/1910 OVC003
     FM191800 21004KT P6SM OVC010
     FM200000 18005KT P6SM SCT010=



000
FTUS44 KAMA 190700 AAB
TAFDHT
TAF AMD
KDHT 190737Z 1908/2006 17005KT 3SM BR OVC003
     FM191000 VRB05KT 4SM BR OVC005
     FM191800 21004KT P6SM OVC010
     FM200000 18005KT P6SM SCT010=



000
FTUS44 KAMA 190600 AAA
TAFAMA
TAF AMD
KAMA 190639Z 1907/2006 11007KT P6SM OVC004
     FM190800 16006KT 2SM BR OVC004
     FM191700 19005KT P6SM OVC012=



000
FTUS44 KAMA 190600 AAA
TAFDHT
TAF AMD
KDHT 190619Z 1906/2006 10005KT 4SM BR OVC003
     FM190800 VRB05KT 4SM BR OVC005
     FM191800 21004KT P6SM OVC010
     FM200000 18005KT P6SM SCT010=



000
FTUS44 KAMA 190500 CCA
TAFDHT
TAF COR
KDHT 190537Z 1906/2006 10005KT 6SM BR BKN005
     FM190800 VRB05KT 4SM BR OVC005
     FM191800 21004KT P6SM OVC010
     FM200000 18005KT P6SM SCT010=



000
FTUS44 KAMA 190500
TAFAMA
TAF
KAMA 190520Z 1906/2006 11007KT P6SM OVC006
     FM190800 16006KT 2SM BR OVC004
     FM191700 19005KT P6SM OVC012=



000
FTUS44 KAMA 190500
TAFDHT
TAF
KDHT 190520Z 1906/2006 10005KT P6SM SCT005
     FM190800 VRB05KT 4SM BR OVC005
     FM191800 21004KT P6SM OVC010
     FM200000 18005KT P6SM SCT010=



000
FTUS44 KAMA 190500
TAFGUY
TAF
KGUY 190520Z 1906/2006 15005KT P6SM SCT005 OVC010
     FM190800 19004KT 4SM BR OVC006
     FM191600 23005KT P6SM OVC010
     FM200000 18005KT P6SM SCT010=



000
FTUS44 KAMA 190300 AAB
TAFAMA
TAF AMD
KAMA 190347Z 1904/1924 09007KT P6SM OVC008
     FM190600 16006KT 2SM BR OVC004
     FM191700 19005KT P6SM OVC012=



000
FTUS44 KAMA 190300 AAB
TAFAMA
TAF AMD
KAMA 190347Z 1904/1924 09007KT P6SM OVC008
     FM190600 16006KT 2SM BR OVC004
     FM191700 19005KT P6SM OVC012=



000
FTUS44 KAMA 190300 AAA
TAFDHT
TAF AMD
KDHT 190345Z 1904/1924 10005KT P6SM BKN300
     FM190600 VRB05KT 3SM BR OVC005
     FM191800 21004KT P6SM OVC010=



000
FTUS44 KAMA 190300 AAA
TAFDHT
TAF AMD
KDHT 190345Z 1904/1924 10005KT P6SM BKN300
     FM190600 VRB05KT 3SM BR OVC005
     FM191800 21004KT P6SM OVC010=



000
FTUS44 KAMA 190300 AAA
TAFGUY
TAF AMD
KGUY 190341Z 1904/1924 15005KT P6SM SCT005 OVC010
     FM190600 19004KT 4SM BR OVC006
     FM191600 23005KT P6SM OVC010=



000
FTUS44 KAMA 190300 AAA
TAFGUY
TAF AMD
KGUY 190341Z 1904/1924 15005KT P6SM SCT005 OVC010
     FM190600 19004KT 4SM BR OVC006
     FM191600 23005KT P6SM OVC010=



000
FTUS44 KAMA 190200 AAA
TAFAMA
TAF AMD
KAMA 190201Z 1902/1924 09007KT P6SM OVC012
     FM190600 16006KT 2SM BR OVC004
     FM191700 19005KT P6SM OVC012=



000
FTUS44 KAMA 182300
TAFDHT
TAF
KDHT 182334Z 1900/1924 10006KT P6SM BKN300
     FM190200 11007KT P6SM OVC012
     FM190600 VRB05KT 2SM BR OVC004
     FM191800 21004KT P6SM OVC010=



000
FTUS44 KAMA 182300
TAFGUY
TAF
KGUY 182334Z 1900/1924 04005KT P6SM SCT005 OVC010
     FM190200 14005KT 4SM BR OVC005
     FM190600 22004KT 2SM BR OVC004
     FM191600 23005KT P6SM OVC010=



000
FTUS44 KAMA 182300
TAFAMA
TAF
KAMA 182334Z 1900/1924 08004KT P6SM BKN300
     FM190300 11007KT P6SM OVC012
     FM190600 16006KT 2SM BR OVC004
     FM191700 19005KT P6SM OVC012=



000
FTUS44 KAMA 182100 AAA
TAFDHT
TAF AMD
KDHT 182130Z 1822/1918 VRB05KT P6SM SCT025 BKN300
     FM190100 11007KT P6SM OVC012
     FM190600 VRB05KT 2SM BR OVC006
     FM191600 VRB04KT P6SM OVC010=



000
FTUS44 KAMA 182100 AAA
TAFAMA
TAF AMD
KAMA 182129Z 1821/1918 01005KT P6SM SCT025 BKN300
     FM190100 11007KT P6SM OVC012
     FM190600 16006KT 2SM BR OVC005
     FM191600 18007KT P6SM OVC008=



000
FTUS44 KAMA 181700
TAFAMA
TAF
KAMA 181734Z 1818/1918 01006KT 5SM BR OVC008
     FM182000 01005KT P6SM OVC015
     FM190000 11007KT P6SM OVC012
     FM190600 16006KT 2SM BR OVC005
     FM191600 18007KT P6SM OVC008=



000
FTUS44 KAMA 181700
TAFGUY
TAF
KGUY 181734Z 1818/1918 36005KT P6SM SCT008 OVC015
     FM190000 14005KT P6SM OVC012
     FM190600 22004KT 3SM BR OVC008
     FM191600 23005KT P6SM OVC010=



000
FTUS44 KAMA 181700
TAFDHT
TAF
KDHT 181734Z 1818/1918 01005KT 5SM BR OVC005
     FM182000 VRB05KT P6SM OVC015
     FM190000 11007KT P6SM OVC012
     FM190600 VRB05KT 2SM BR OVC006
     FM191600 VRB04KT P6SM OVC010=



000
FTUS44 KAMA 181500 AAA
TAFGUY
TAF AMD
KGUY 181537Z 1816/1912 35007KT P6SM OVC007
     FM181800 01006KT P6SM OVC015
     FM190600 VRB03KT 3SM BR BKN009=



000
FTUS44 KAMA 181500 AAA
TAFDHT
TAF AMD
KDHT 181535Z 1816/1912 36006KT 1SM BR OVC003
     FM181700 36010KT P6SM SCT025
     FM190600 VRB03KT 3SM BR BKN010=



000
FTUS44 KAMA 181500 AAA
TAFAMA
TAF AMD
KAMA 181533Z 1816/1912 36009KT P6SM OVC007
     FM181800 01007KT P6SM OVC015
     FM190600 15003KT 2SM BR BKN007=



000
FTUS44 KAMA 181100
TAFAMA
TAF
KAMA 181120Z 1812/1912 31006KT 2SM BR OVC003
     FM181330 33006KT 3SM BR BKN004
     FM181600 36009KT P6SM BKN015
     FM190600 15003KT 2SM BR BKN007=



000
FTUS44 KAMA 181100
TAFGUY
TAF
KGUY 181120Z 1812/1912 32008KT 6SM BR OVC013
     FM181500 36005KT P6SM BKN020
     FM190600 VRB03KT 3SM BR BKN009=



000
FTUS44 KAMA 181100
TAFDHT
TAF
KDHT 181120Z 1812/1912 36010KT 3SM BR OVC003
     FM181700 36010KT P6SM SCT025
     FM190600 VRB03KT 3SM BR BKN010=



000
FTUS44 KAMA 181000 AAE
TAFDHT
TAF AMD
KDHT 181005Z 1810/1906 36010KT 3SM BR OVC003
     FM181500 36010KT P6SM SCT025=



000
FTUS44 KAMA 181000 AAA
TAFGUY
TAF AMD
KGUY 181004Z 1810/1906 09005KT 6SM BR VCSH OVC010
     FM181400 36005KT P6SM BKN015=



000
FTUS44 KAMA 180900 AAD
TAFDHT
TAF AMD
KDHT 180937Z 1810/1906 36005KT 3SM BR BKN003
     FM181000 36010KT 5SM BR OVC008
     FM181500 36010KT P6SM SCT025=



000
FTUS44 KAMA 180900 AAB
TAFAMA
TAF AMD
KAMA 180912Z 1809/1906 19006KT 1/2SM FG VV002
      TEMPO 1809/1810 1/4SM FG
     FM181500 36009KT P6SM BKN015=



000
FTUS44 KAMA 180900 AAB
TAFAMA
TAF AMD
KAMA 180912Z 1809/1906 19006KT 1/2SM FG VV002
      TEMPO 1809/1810 1/4SM FG
     FM181500 36009KT P6SM BKN015=



000
FTUS44 KAMA 180800 AAA
TAFAMA
TAF AMD
KAMA 180810Z 1808/1906 19006KT 1/2SM FG VV001
      TEMPO 1808/1810 1/4SM FG
     FM181500 36009KT P6SM BKN015=



000
FTUS44 KAMA 180800 AAA
TAFAMA
TAF AMD
KAMA 180810Z 1808/1906 19006KT 1/2SM FG VV001
      TEMPO 1808/1810 1/4SM FG
     FM181500 36009KT P6SM BKN015=



000
FTUS44 KAMA 180800 AAC
TAFDHT
TAF AMD
KDHT 180807Z 1808/1906 36005KT 3SM BR BKN004
      TEMPO 1808/1810 1SM BR OVC003
     FM181000 36010KT 5SM BR OVC008
     FM181500 36010KT P6SM SCT025=



000
FTUS44 KAMA 180800 AAC
TAFDHT
TAF AMD
KDHT 180807Z 1808/1906 36005KT 3SM BR BKN004
      TEMPO 1808/1810 1SM BR OVC003
     FM181000 36010KT 5SM BR OVC008
     FM181500 36010KT P6SM SCT025=



000
FTUS44 KAMA 180700 AAB
TAFDHT
TAF AMD
KDHT 180734Z 1808/1906 36005KT 3SM BR BKN004
     FM181000 36010KT 5SM BR OVC008
     FM181500 36010KT P6SM SCT025=



000
FTUS44 KAMA 180700 AAA
TAFDHT
TAF AMD
KDHT 180716Z 1807/1906 36005KT 5SM BR BKN003
     FM181000 36010KT 5SM BR OVC008
     FM181500 36010KT P6SM SCT025=



000
FTUS44 KAMA 180500
TAFDHT
TAF
KDHT 180520Z 1806/1906 36005KT 5SM BR BKN006
     FM181000 36010KT 5SM BR OVC008
     FM181500 36010KT P6SM SCT025=



000
FTUS44 KAMA 180500
TAFAMA
TAF
KAMA 180520Z 1806/1906 18013KT 1SM BR OVC002
     FM180900 33006KT 1/2SM FG VV001
     FM181500 36009KT P6SM BKN015=



000
FTUS44 KAMA 180500
TAFGUY
TAF
KGUY 180520Z 1806/1906 09005KT 6SM BR VCSH OVC005
     FM181400 36005KT P6SM BKN015=



000
FTUS44 KAMA 180200 AAA
TAFDHT
TAF AMD
KDHT 180258Z 1803/1824 36005KT 6SM BR BKN006
     FM181000 36010KT 4SM BR OVC008
     FM181500 36010KT P6SM SCT025=



000
FTUS44 KAMA 180100 AAA
TAFGUY
TAF AMD
KGUY 180119Z 1801/1824 15010KT P6SM BKN010 OVC050
     FM180300 13007KT 3SM BR OVC005
     FM181400 36005KT P6SM BKN015=



000
FTUS44 KAMA 180100 AAA
TAFGUY
TAF AMD
KGUY 180119Z 1801/1824 15010KT P6SM BKN010 OVC050
     FM180300 13007KT 3SM BR OVC005
     FM181400 36005KT P6SM BKN015=



000
FTUS44 KAMA 180100 AAA
TAFAMA
TAF AMD
KAMA 180108Z 1801/1824 15010G20KT 1SM BR OVC002
     FM181000 30006KT 1/2SM FG VV001
     FM181500 36009KT P6SM BKN015=



000
FTUS44 KAMA 172300 RRA
TAFGUY
TAF
KGUY 172343Z 1800/1818 15010KT P6SM SCT025 BKN100
     FM180300 13007KT 3SM BR OVC005
     FM181400 36005KT P6SM BKN015=



000
FTUS44 KAMA 172300
TAFAMA
TAF
KAMA 172340Z 1800/1824 15010KT P6SM OVC004
     FM181000 30006KT 1SM BR OVC003
     FM181500 36009KT P6SM BKN015=



000
FTUS44 KAMA 172300
TAFDHT
TAF
KDHT 172340Z 1800/1824 16009KT P6SM SCT070 BKN100
     FM180500 33010KT 5SM BR BKN015
     FM181500 36010KT P6SM SCT025=



000
FTUS44 KAMA 172200 AAD
TAFAMA
TAF AMD
KAMA 172215Z 1722/1818 16014KT P6SM FEW010 SCT050
      TEMPO 1722/1724 BKN005
     FM180300 18010KT 6SM BR OVC009
     FM180900 28006KT 5SM BR SCT007
     FM181500 35009KT P6SM SCT015=



000
FTUS44 KAMA 172100 AAC
TAFAMA
TAF AMD
KAMA 172154Z 1722/1818 16014KT P6SM FEW010 SCT050
     FM180300 18010KT 6SM BR OVC009
     FM180900 28006KT 5SM BR SCT007
     FM181500 35009KT P6SM SCT015=



000
FTUS44 KAMA 172100 AAC
TAFAMA
TAF AMD
KAMA 172154Z 1722/1818 16014KT P6SM FEW010 SCT050
     FM180300 18010KT 6SM BR OVC009
     FM180900 28006KT 5SM BR SCT007
     FM181500 35009KT P6SM SCT015=



000
FTUS44 KAMA 172100 AAB
TAFAMA
TAF AMD
KAMA 172122Z 1721/1818 16014KT P6SM BKN012
      TEMPO 1722/1801 BKN050
     FM180300 18010KT 6SM BR OVC009
     FM180900 28006KT 5SM BR SCT007
     FM181500 35009KT P6SM SCT015=



000
FTUS44 KAMA 171900 AAA
TAFAMA
TAF AMD
KAMA 171953Z 1720/1818 15016KT P6SM BKN009
     FM180300 18010KT 6SM BR OVC009
     FM180900 28006KT 5SM BR SCT007
     FM181500 35009KT P6SM SCT015=



000
FTUS44 KAMA 171700 RRA
TAFAMA
TAF
KAMA 171741Z 1718/1818 15016KT P6SM OVC025
     FM180300 18010KT 6SM BR BKN015
     FM180900 28006KT 5SM BR SCT007
     FM181500 35009KT P6SM SCT015=



000
FTUS44 KAMA 171700 RRA
TAFDHT
TAF
KDHT 171741Z 1718/1818 20015KT P6SM SCT025 BKN120
     FM180000 16009KT P6SM SCT020 BKN050
     FM180500 33010KT 5SM BR BKN015
     FM181500 36010KT P6SM FEW015=



000
FTUS44 KAMA 171700 RRA
TAFGUY
TAF
KGUY 171741Z 1718/1818 17015KT P6SM SCT025 BKN100
     FM180200 13007KT 3SM BR OVC007
     FM181400 02006KT 5SM BR BKN015=



000
FTUS44 KAMA 171100
TAFAMA
TAF
KAMA 171139Z 1712/1812 16017KT P6SM OVC025
     FM172200 16013KT P6SM BKN035
     FM180400 20010KT P6SM SCT100
     FM181000 28008KT P6SM FEW010 SCT100=



000
FTUS44 KAMA 171100
TAFGUY
TAF
KGUY 171139Z 1712/1812 18010KT P6SM BKN200
     FM171700 17014G20KT P6SM SCT035 BKN100
     FM180200 13007KT 3SM BR OVC008=



000
FTUS44 KAMA 171100
TAFDHT
TAF
KDHT 171139Z 1712/1812 19009KT P6SM SCT090 BKN200
     FM171700 20014G20KT P6SM BKN090
     FM180000 16009KT P6SM BKN080
     FM180700 34010KT P6SM SCT010 BKN080=



000
FTUS44 KAMA 171000 AAC
TAFAMA
TAF AMD
KAMA 171017Z 1710/1806 16010KT P6SM OVC025
     FM171500 18012G20KT P6SM OVC020
     FM180000 16008KT P6SM OVC010=



000
FTUS44 KAMA 170900 AAB
TAFAMA
TAF AMD
KAMA 170900Z 1709/1806 16010KT P6SM OVC035
     FM171500 18012G20KT P6SM OVC020
     FM180000 16008KT P6SM OVC010=



000
FTUS44 KAMA 170900 AAB
TAFAMA
TAF AMD
KAMA 170900Z 1709/1806 16010KT P6SM OVC035
     FM171500 18012G20KT P6SM OVC020
     FM180000 16008KT P6SM OVC010=



000
FTUS44 KAMA 170800 AAA
TAFAMA
TAF AMD
KAMA 170803Z 1708/1806 17012KT P6SM OVC025
     FM171500 18012G20KT P6SM OVC020
     FM180000 16008KT P6SM OVC010=



000
FTUS44 KAMA 170800 AAA
TAFAMA
TAF AMD
KAMA 170803Z 1708/1806 17012KT P6SM OVC025
     FM171500 18012G20KT P6SM OVC020
     FM180000 16008KT P6SM OVC010=



    US Dept of Commerce
    National Oceanic and Atmospheric Administration
    National Weather Service
    1325 East West Highway
    Silver Spring, MD 20910
    Page Author: NWS Internet Services Team
Disclaimer
Information Quality
Credits
Glossary
Privacy Policy
Freedom of Information Act (FOIA)
About Us
Career Opportunities